createdAt,value
2023-04-16T00:00:33.121Z,100.00
2023-04-16T00:03:20.928Z,100.00
2023-04-16T00:05:48.710Z,100.00
2023-04-16T00:08:16.070Z,100.00
2023-04-16T00:10:43.712Z,100.00
2023-04-16T00:13:13.389Z,100.00
2023-04-16T00:15:40.971Z,100.00
2023-04-16T00:18:08.195Z,100.00
2023-04-16T00:20:35.748Z,100.00
2023-04-16T00:23:02.886Z,100.00
2023-04-16T00:25:33.238Z,100.00
2023-04-16T00:28:00.657Z,100.00
2023-04-16T00:30:28.253Z,100.00
2023-04-16T00:32:55.702Z,100.00
2023-04-16T00:35:23.483Z,100.00
2023-04-16T00:37:50.674Z,100.00
2023-04-16T00:40:18.324Z,100.00
2023-04-16T00:42:46.013Z,100.00
2023-04-16T00:45:14.023Z,100.00
2023-04-16T00:47:41.351Z,100.00
2023-04-16T00:50:09.193Z,100.00
2023-04-16T00:52:36.679Z,100.00
2023-04-16T00:55:06.675Z,100.00
2023-04-16T00:57:33.936Z,100.00
2023-04-16T01:00:03.002Z,100.00
2023-04-16T01:02:30.754Z,100.00
2023-04-16T01:04:58.326Z,100.00
2023-04-16T01:07:25.557Z,100.00
2023-04-16T01:09:53.203Z,100.00
2023-04-16T01:12:20.399Z,100.00
2023-04-16T01:14:48.215Z,100.00
2023-04-16T01:17:15.844Z,100.00
2023-04-16T01:19:43.563Z,100.00
2023-04-16T01:22:10.939Z,100.00
2023-04-16T01:24:38.790Z,100.00
2023-04-16T01:27:06.481Z,100.00
2023-04-16T01:29:33.965Z,100.00
2023-04-16T01:32:01.380Z,100.00
2023-04-16T01:34:32.714Z,100.00
2023-04-16T01:36:59.925Z,100.00
2023-04-16T01:39:28.239Z,100.00
2023-04-16T01:41:57.610Z,100.00
2023-04-16T01:44:25.696Z,100.00
2023-04-16T01:46:53.233Z,100.00
2023-04-16T01:49:22.927Z,100.00
2023-04-16T01:51:50.124Z,100.00
2023-04-16T01:54:17.664Z,100.00
2023-04-16T01:56:45.487Z,100.00
2023-04-16T01:59:12.978Z,100.00
2023-04-16T02:01:42.746Z,100.00
2023-04-16T02:04:11.182Z,100.00
2023-04-16T02:06:39.149Z,100.00
2023-04-16T02:09:06.855Z,100.00
2023-04-16T02:11:34.476Z,100.00
2023-04-16T02:14:02.038Z,100.00
2023-04-16T02:16:29.635Z,100.00
2023-04-16T02:19:08.409Z,100.00
2023-04-16T02:21:37.064Z,100.00
2023-04-16T02:24:05.355Z,100.00
2023-04-16T02:26:33.510Z,100.00
2023-04-16T02:29:06.485Z,100.00
2023-04-16T02:31:40.315Z,100.00
2023-04-16T02:34:09.266Z,100.00
2023-04-16T02:36:36.629Z,100.00
2023-04-16T02:39:04.799Z,100.00
2023-04-16T02:41:32.049Z,100.00
2023-04-16T02:43:59.670Z,100.00
2023-04-16T02:46:27.222Z,100.00
2023-04-16T02:48:54.973Z,100.00
2023-04-16T02:51:22.153Z,100.00
2023-04-16T02:53:49.767Z,100.00
2023-04-16T02:56:16.969Z,100.00
2023-04-16T02:58:44.549Z,100.00
2023-04-16T03:01:11.828Z,100.00
2023-04-16T03:03:39.503Z,100.00
2023-04-16T03:06:06.748Z,100.00
2023-04-16T03:08:34.394Z,100.00
2023-04-16T03:11:01.751Z,100.00
2023-04-16T03:13:29.384Z,100.00
2023-04-16T03:15:56.865Z,100.00
2023-04-16T03:18:24.835Z,100.00
2023-04-16T03:20:53.331Z,100.00
2023-04-16T03:23:20.971Z,100.00
2023-04-16T03:25:48.288Z,100.00
2023-04-16T03:28:18.749Z,100.00
2023-04-16T03:30:55.386Z,100.00
2023-04-16T03:33:23.190Z,100.00
2023-04-16T03:35:58.461Z,100.00
2023-04-16T03:38:29.071Z,100.00
2023-04-16T03:40:57.920Z,100.00
2023-04-16T03:43:25.885Z,100.00
2023-04-16T03:45:53.214Z,100.00
2023-04-16T03:48:26.443Z,100.00
2023-04-16T03:50:54.629Z,100.00
2023-04-16T03:53:22.097Z,100.00
2023-04-16T03:55:52.767Z,100.00
2023-04-16T03:58:21.602Z,100.00
2023-04-16T04:00:48.850Z,100.00
2023-04-16T04:03:18.743Z,100.00
2023-04-16T04:05:48.770Z,100.00
2023-04-16T04:08:21.883Z,100.00
2023-04-16T04:10:49.313Z,100.00
2023-04-16T04:13:16.888Z,100.00
2023-04-16T04:15:44.927Z,100.00
2023-04-16T04:18:12.529Z,100.00
2023-04-16T04:20:41.403Z,100.00
2023-04-16T04:23:09.507Z,100.00
2023-04-16T04:25:37.058Z,100.00
2023-04-16T04:28:04.796Z,100.00
2023-04-16T04:30:32.371Z,100.00
2023-04-16T04:33:02.289Z,100.00
2023-04-16T04:35:29.542Z,100.00
2023-04-16T04:37:59.198Z,100.00
2023-04-16T04:40:27.583Z,100.00
2023-04-16T04:42:55.097Z,100.00
2023-04-16T04:45:27.216Z,100.00
2023-04-16T04:47:55.854Z,100.00
2023-04-16T04:50:23.193Z,100.00
2023-04-16T04:52:50.768Z,100.00
2023-04-16T04:55:18.131Z,100.00
2023-04-16T04:57:45.686Z,100.00
2023-04-16T05:00:13.144Z,100.00
2023-04-16T05:02:48.093Z,100.00
2023-04-16T05:05:15.758Z,100.00
2023-04-16T05:07:43.335Z,100.00
2023-04-16T05:10:10.870Z,100.00
2023-04-16T05:12:38.423Z,100.00
2023-04-16T05:15:06.279Z,100.00
2023-04-16T05:17:33.930Z,100.00
2023-04-16T05:20:01.358Z,100.00
2023-04-16T05:22:28.947Z,100.00
2023-04-16T05:24:56.598Z,100.00
2023-04-16T05:27:24.247Z,100.00
2023-04-16T05:29:51.500Z,100.00
2023-04-16T05:32:21.806Z,100.00
2023-04-16T05:34:49.053Z,100.00
2023-04-16T05:37:16.529Z,100.00
2023-04-16T05:39:43.684Z,100.00
2023-04-16T05:42:11.337Z,100.00
2023-04-16T05:44:38.587Z,100.00
2023-04-16T05:47:09.986Z,100.00
2023-04-16T05:49:40.093Z,100.00
2023-04-16T05:52:07.736Z,100.00
2023-04-16T05:54:34.892Z,100.00
2023-04-16T05:57:02.539Z,100.00
2023-04-16T05:59:31.109Z,100.00
2023-04-16T06:01:58.857Z,100.00
2023-04-16T06:04:26.530Z,100.00
2023-04-16T06:06:54.035Z,100.00
2023-04-16T06:09:21.180Z,100.00
2023-04-16T06:11:49.234Z,100.00
2023-04-16T06:14:16.498Z,100.00
2023-04-16T06:16:44.306Z,100.00
2023-04-16T06:19:11.707Z,100.00
2023-04-16T06:21:39.510Z,100.00
2023-04-16T06:24:09.856Z,100.00
2023-04-16T06:26:37.571Z,100.00
2023-04-16T06:29:04.996Z,100.00
2023-04-16T06:31:32.628Z,100.00
2023-04-16T06:33:59.994Z,100.00
2023-04-16T06:36:29.176Z,100.00
2023-04-16T06:38:56.422Z,100.00
2023-04-16T06:41:25.919Z,100.00
2023-04-16T06:43:53.177Z,100.00
2023-04-16T06:46:20.874Z,100.00
2023-04-16T06:48:48.214Z,100.00
2023-04-16T06:51:17.051Z,100.00
2023-04-16T06:53:44.774Z,100.00
2023-04-16T06:56:12.440Z,100.00
2023-04-16T06:58:39.739Z,100.00
2023-04-16T07:01:07.325Z,100.00
2023-04-16T07:03:35.258Z,100.00
2023-04-16T07:06:03.090Z,100.00
2023-04-16T07:08:30.432Z,100.00
2023-04-16T07:10:58.306Z,100.00
2023-04-16T07:13:26.114Z,100.00
2023-04-16T07:15:54.297Z,100.00
2023-04-16T07:18:21.901Z,100.00
2023-04-16T07:20:49.628Z,100.00
2023-04-16T07:23:16.829Z,100.00
2023-04-16T07:25:44.649Z,100.00
2023-04-16T07:28:12.052Z,100.00
2023-04-16T07:30:39.667Z,100.00
2023-04-16T07:33:07.057Z,100.00
2023-04-16T07:35:34.682Z,100.00
2023-04-16T07:38:01.994Z,100.00
2023-04-16T07:40:30.441Z,100.00
2023-04-16T07:42:57.837Z,100.00
2023-04-16T07:45:25.359Z,100.00
2023-04-16T07:47:52.774Z,100.00
2023-04-16T07:50:23.080Z,100.00
2023-04-16T07:52:50.326Z,100.00
2023-04-16T07:55:18.135Z,100.00
2023-04-16T07:57:45.958Z,100.00
2023-04-16T08:00:20.898Z,100.00
2023-04-16T08:02:48.777Z,100.00
2023-04-16T08:05:16.672Z,100.00
2023-04-16T08:07:44.107Z,100.00
2023-04-16T08:10:12.163Z,100.00
2023-04-16T08:12:39.612Z,99.35
2023-04-16T08:15:08.324Z,100.00
2023-04-16T08:17:35.722Z,98.06
2023-04-16T08:20:04.156Z,100.00
2023-04-16T08:22:31.476Z,98.03
2023-04-16T08:24:59.113Z,98.37
2023-04-16T08:27:26.424Z,96.78
2023-04-16T08:29:54.003Z,89.01
2023-04-16T08:32:21.295Z,77.85
2023-04-16T08:34:48.983Z,70.73
2023-04-16T08:37:16.281Z,73.01
2023-04-16T08:39:43.901Z,73.11
2023-04-16T08:42:19.405Z,69.37
2023-04-16T08:44:49.355Z,73.70
2023-04-16T08:47:16.895Z,70.05
2023-04-16T08:49:48.299Z,65.79
2023-04-16T08:52:20.437Z,62.92
2023-04-16T08:55:03.558Z,63.55
2023-04-16T08:57:44.873Z,63.26
2023-04-16T09:00:14.346Z,60.67
2023-04-16T09:02:43.030Z,60.63
2023-04-16T09:05:13.677Z,58.26
2023-04-16T09:07:42.395Z,55.47
2023-04-16T09:10:10.899Z,52.84
2023-04-16T09:12:39.362Z,54.22
2023-04-16T09:15:08.304Z,52.56
2023-04-16T09:17:35.938Z,52.04
2023-04-16T09:20:06.260Z,51.96
2023-04-16T09:22:33.632Z,52.69
2023-04-16T09:25:01.432Z,51.04
2023-04-16T09:27:28.738Z,48.13
2023-04-16T09:29:56.317Z,47.27
2023-04-16T09:32:28.044Z,47.32
2023-04-16T09:34:59.600Z,46.49
2023-04-16T09:37:30.033Z,49.40
2023-04-16T09:40:04.931Z,46.71
2023-04-16T09:42:34.258Z,43.93
2023-04-16T09:45:04.867Z,45.13
2023-04-16T09:47:44.650Z,42.91
2023-04-16T09:50:18.602Z,43.42
2023-04-16T09:52:53.357Z,42.12
2023-04-16T09:55:27.675Z,42.70
2023-04-16T09:58:01.731Z,41.53
2023-04-16T10:00:31.657Z,43.12
2023-04-16T10:03:07.081Z,40.76
2023-04-16T10:05:35.417Z,42.41
2023-04-16T10:08:03.431Z,44.97
2023-04-16T10:10:32.406Z,44.21
2023-04-16T10:13:00.318Z,45.69
2023-04-16T10:15:29.854Z,44.16
2023-04-16T10:17:58.995Z,44.44
2023-04-16T10:20:28.351Z,43.62
2023-04-16T10:22:56.747Z,38.97
2023-04-16T10:25:24.780Z,38.92
2023-04-16T10:27:52.321Z,39.10
2023-04-16T10:30:21.908Z,39.30
2023-04-16T10:32:51.240Z,40.47
2023-04-16T10:35:21.804Z,40.84
2023-04-16T10:37:49.552Z,36.37
2023-04-16T10:40:27.877Z,36.32
2023-04-16T10:43:01.093Z,37.68
2023-04-16T10:45:38.041Z,35.51
2023-04-16T10:48:08.830Z,37.96
2023-04-16T10:50:37.566Z,36.87
2023-04-16T10:53:27.021Z,34.89
2023-04-16T10:56:04.619Z,33.98
2023-04-16T10:58:35.465Z,36.21
2023-04-16T11:01:11.426Z,33.27
2023-04-16T11:03:43.153Z,35.15
2023-04-16T11:06:14.851Z,34.63
2023-04-16T11:08:53.878Z,32.78
2023-04-16T11:11:23.429Z,31.19
2023-04-16T11:13:56.061Z,32.20
2023-04-16T11:16:25.556Z,30.73
2023-04-16T11:18:53.953Z,30.19
2023-04-16T11:21:24.468Z,29.88
2023-04-16T11:23:53.494Z,30.68
2023-04-16T11:26:31.320Z,30.13
2023-04-16T11:29:00.396Z,30.44
2023-04-16T11:31:28.412Z,28.61
2023-04-16T11:33:56.997Z,29.42
2023-04-16T11:36:26.937Z,28.66
2023-04-16T11:39:03.697Z,28.29
2023-04-16T11:41:31.392Z,28.54
2023-04-16T11:43:58.718Z,28.73
2023-04-16T11:46:39.676Z,30.66
2023-04-16T11:49:07.080Z,32.55
2023-04-16T11:51:42.511Z,33.03
2023-04-16T11:54:12.081Z,34.23
2023-04-16T11:56:46.923Z,35.86
2023-04-16T11:59:23.294Z,36.50
2023-04-16T12:01:52.731Z,36.15
2023-04-16T12:04:21.726Z,35.05
2023-04-16T12:07:12.370Z,34.37
2023-04-16T12:09:43.935Z,36.90
2023-04-16T12:13:27.572Z,36.86
2023-04-16T12:15:57.272Z,34.91
2023-04-16T12:18:28.825Z,33.98
2023-04-16T12:20:56.528Z,32.94
2023-04-16T12:23:33.169Z,32.97
2023-04-16T12:26:10.625Z,32.97
2023-04-16T12:28:38.847Z,31.00
2023-04-16T12:31:07.469Z,31.75
2023-04-16T12:33:34.696Z,31.64
2023-04-16T12:36:16.689Z,32.78
2023-04-16T12:38:43.948Z,32.83
2023-04-16T12:41:11.561Z,30.92
2023-04-16T12:43:38.829Z,31.06
2023-04-16T12:46:06.937Z,32.69
2023-04-16T12:48:34.762Z,33.98
2023-04-16T12:51:02.791Z,33.96
2023-04-16T12:53:30.216Z,34.96
2023-04-16T12:55:57.911Z,36.38
2023-04-16T12:58:25.192Z,36.34
2023-04-16T13:00:52.713Z,35.17
2023-04-16T13:03:24.097Z,36.18
2023-04-16T13:05:51.991Z,36.64
2023-04-16T13:08:19.296Z,36.79
2023-04-16T13:10:46.939Z,37.57
2023-04-16T13:13:14.480Z,37.48
2023-04-16T13:15:42.061Z,37.58
2023-04-16T13:18:09.369Z,37.17
2023-04-16T13:20:37.127Z,35.47
2023-04-16T13:23:07.225Z,32.99
2023-04-16T13:25:35.278Z,31.97
2023-04-16T13:28:03.041Z,33.05
2023-04-16T13:30:31.896Z,33.53
2023-04-16T13:32:59.712Z,34.49
2023-04-16T13:35:27.640Z,35.50
2023-04-16T13:37:54.958Z,37.37
2023-04-16T13:40:22.541Z,38.51
2023-04-16T13:42:49.860Z,39.57
2023-04-16T13:45:17.631Z,41.05
2023-04-16T13:47:44.919Z,41.85
2023-04-16T13:50:12.667Z,41.66
2023-04-16T13:52:39.892Z,42.41
2023-04-16T13:55:10.229Z,41.90
2023-04-16T13:57:37.539Z,39.18
2023-04-16T14:00:05.693Z,38.60
2023-04-16T14:02:33.301Z,38.77
2023-04-16T14:05:01.137Z,40.35
2023-04-16T14:07:29.399Z,40.50
2023-04-16T14:09:56.986Z,40.46
2023-04-16T14:12:28.569Z,39.96
2023-04-16T14:14:57.252Z,41.48
2023-04-16T14:17:24.846Z,42.51
2023-04-16T14:19:52.545Z,42.96
2023-04-16T14:22:19.877Z,43.61
2023-04-16T14:24:47.555Z,44.09
2023-04-16T14:27:19.787Z,44.92
2023-04-16T14:29:47.391Z,45.47
2023-04-16T14:32:14.827Z,45.12
2023-04-16T14:34:42.494Z,46.02
2023-04-16T14:37:09.949Z,46.60
2023-04-16T14:39:39.338Z,46.56
2023-04-16T14:42:06.815Z,46.99
2023-04-16T14:44:34.444Z,47.63
2023-04-16T14:47:01.711Z,48.35
2023-04-16T14:49:29.430Z,48.91
2023-04-16T14:51:57.264Z,49.04
2023-04-16T14:54:24.907Z,50.12
2023-04-16T14:56:52.206Z,50.42
2023-04-16T14:59:19.954Z,51.61
2023-04-16T15:01:47.455Z,52.54
2023-04-16T15:04:15.444Z,53.25
2023-04-16T15:06:43.120Z,53.47
2023-04-16T15:09:11.054Z,54.72
2023-04-16T15:11:38.546Z,56.25
2023-04-16T15:14:07.005Z,57.17
2023-04-16T15:16:34.434Z,58.15
2023-04-16T15:19:07.243Z,58.49
2023-04-16T15:21:34.599Z,58.62
2023-04-16T15:24:02.767Z,59.49
2023-04-16T15:26:30.673Z,59.82
2023-04-16T15:28:58.278Z,60.36
2023-04-16T15:31:26.250Z,60.73
2023-04-16T15:33:54.738Z,60.48
2023-04-16T15:36:22.266Z,61.07
2023-04-16T15:38:49.832Z,60.67
2023-04-16T15:41:17.120Z,60.07
2023-04-16T15:43:45.324Z,60.16
2023-04-16T15:46:15.382Z,60.10
2023-04-16T15:48:43.149Z,60.80
2023-04-16T15:51:12.735Z,61.05
2023-04-16T15:53:40.383Z,61.12
2023-04-16T15:56:07.663Z,61.86
2023-04-16T15:58:35.373Z,63.74
2023-04-16T16:01:02.675Z,63.83
2023-04-16T16:03:32.458Z,64.67
2023-04-16T16:06:00.005Z,65.28
2023-04-16T16:08:27.620Z,66.61
2023-04-16T16:10:55.075Z,67.25
2023-04-16T16:13:22.652Z,66.98
2023-04-16T16:15:51.060Z,68.71
2023-04-16T16:18:18.838Z,69.81
2023-04-16T16:20:46.160Z,70.23
2023-04-16T16:23:13.902Z,70.56
2023-04-16T16:25:42.353Z,71.86
2023-04-16T16:28:12.664Z,72.33
2023-04-16T16:30:40.933Z,72.42
2023-04-16T16:33:08.662Z,72.31
2023-04-16T16:35:36.829Z,72.94
2023-04-16T16:38:05.066Z,74.13
2023-04-16T16:40:32.459Z,74.27
2023-04-16T16:43:00.153Z,74.37
2023-04-16T16:45:28.769Z,75.79
2023-04-16T16:47:59.029Z,76.01
2023-04-16T16:50:26.392Z,75.01
2023-04-16T16:52:55.181Z,76.61
2023-04-16T16:55:23.199Z,77.39
2023-04-16T16:57:50.979Z,77.40
2023-04-16T17:00:20.293Z,78.71
2023-04-16T17:02:50.411Z,79.12
2023-04-16T17:05:18.280Z,79.30
2023-04-16T17:07:46.138Z,80.43
2023-04-16T17:10:20.078Z,82.88
2023-04-16T17:12:48.903Z,84.58
2023-04-16T17:15:19.115Z,85.82
2023-04-16T17:17:48.444Z,86.47
2023-04-16T17:20:16.174Z,87.87
2023-04-16T17:22:43.919Z,87.45
2023-04-16T17:25:11.807Z,88.98
2023-04-16T17:27:39.484Z,89.92
2023-04-16T17:30:07.616Z,90.11
2023-04-16T17:32:35.493Z,90.48
2023-04-16T17:35:04.542Z,90.94
2023-04-16T17:37:32.423Z,90.25
2023-04-16T17:39:59.722Z,90.61
2023-04-16T17:42:27.332Z,93.20
2023-04-16T17:44:54.677Z,91.37
2023-04-16T17:47:22.497Z,92.63
2023-04-16T17:49:53.401Z,92.15
2023-04-16T17:52:21.710Z,92.58
2023-04-16T17:54:49.254Z,91.77
2023-04-16T17:57:17.104Z,90.66
2023-04-16T17:59:44.274Z,89.43
2023-04-16T18:02:12.001Z,89.08
2023-04-16T18:04:41.616Z,88.56
2023-04-16T18:07:09.405Z,88.07
2023-04-16T18:09:37.016Z,87.76
2023-04-16T18:12:04.938Z,90.59
2023-04-16T18:14:34.475Z,93.09
2023-04-16T18:17:03.580Z,93.24
2023-04-16T18:19:32.502Z,94.08
2023-04-16T18:22:02.260Z,93.52
2023-04-16T18:24:29.545Z,93.83
2023-04-16T18:26:57.089Z,94.62
2023-04-16T18:29:25.500Z,94.59
2023-04-16T18:31:55.127Z,94.32
2023-04-16T18:34:22.960Z,95.23
2023-04-16T18:36:50.671Z,94.98
2023-04-16T18:39:18.276Z,95.65
2023-04-16T18:41:48.084Z,97.00
2023-04-16T18:44:16.330Z,98.31
2023-04-16T18:46:46.241Z,100.00
2023-04-16T18:49:13.802Z,100.00
2023-04-16T18:51:42.248Z,100.00
2023-04-16T18:54:09.531Z,100.00
2023-04-16T18:56:37.334Z,100.00
2023-04-16T18:59:04.714Z,100.00
2023-04-16T19:01:32.346Z,100.00
2023-04-16T19:03:59.789Z,100.00
2023-04-16T19:06:27.983Z,100.00
2023-04-16T19:08:55.519Z,100.00
2023-04-16T19:11:23.282Z,100.00
2023-04-16T19:13:50.648Z,100.00
2023-04-16T19:16:18.368Z,100.00
2023-04-16T19:18:45.761Z,100.00
2023-04-16T19:21:13.535Z,100.00
2023-04-16T19:23:40.922Z,100.00
2023-04-16T19:26:08.638Z,100.00
2023-04-16T19:28:36.031Z,100.00
2023-04-16T19:31:03.853Z,100.00
2023-04-16T19:33:31.622Z,100.00
2023-04-16T19:36:00.470Z,100.00
2023-04-16T19:38:28.306Z,100.00
2023-04-16T19:40:55.999Z,100.00
2023-04-16T19:43:23.520Z,100.00
2023-04-16T19:45:53.604Z,100.00
2023-04-16T19:48:21.607Z,100.00
2023-04-16T19:50:51.430Z,100.00
2023-04-16T19:53:18.756Z,100.00
2023-04-16T19:55:46.351Z,100.00
2023-04-16T19:58:17.399Z,100.00
2023-04-16T20:00:45.045Z,100.00
2023-04-16T20:03:12.365Z,100.00
2023-04-16T20:05:40.083Z,100.00
2023-04-16T20:08:07.345Z,100.00
2023-04-16T20:10:34.961Z,100.00
2023-04-16T20:13:02.184Z,100.00
2023-04-16T20:15:29.807Z,100.00
2023-04-16T20:17:57.679Z,100.00
2023-04-16T20:20:25.695Z,100.00
2023-04-16T20:22:52.978Z,100.00
2023-04-16T20:25:20.851Z,100.00
2023-04-16T20:27:48.288Z,100.00
2023-04-16T20:30:16.037Z,100.00
2023-04-16T20:32:43.281Z,100.00
2023-04-16T20:35:11.676Z,100.00
2023-04-16T20:37:39.223Z,100.00
2023-04-16T20:40:09.033Z,100.00
2023-04-16T20:42:36.371Z,100.00
2023-04-16T20:45:05.061Z,100.00
2023-04-16T20:47:34.836Z,100.00
2023-04-16T20:50:03.143Z,100.00
2023-04-16T20:52:31.004Z,100.00
2023-04-16T20:54:58.558Z,100.00
2023-04-16T20:57:26.322Z,100.00
2023-04-16T20:59:54.890Z,100.00
2023-04-16T21:02:23.826Z,100.00
2023-04-16T21:04:51.696Z,100.00
2023-04-16T21:07:19.132Z,100.00
2023-04-16T21:09:46.762Z,100.00
2023-04-16T21:12:13.995Z,100.00
2023-04-16T21:14:41.505Z,100.00
2023-04-16T21:17:08.772Z,100.00
2023-04-16T21:19:36.257Z,100.00
2023-04-16T21:22:03.511Z,100.00
2023-04-16T21:24:33.150Z,100.00
2023-04-16T21:27:01.076Z,100.00
2023-04-16T21:29:28.688Z,100.00
2023-04-16T21:31:55.972Z,100.00
2023-04-16T21:34:23.626Z,100.00
2023-04-16T21:36:50.885Z,100.00
2023-04-16T21:39:19.996Z,100.00
2023-04-16T21:41:47.684Z,100.00
2023-04-16T21:44:15.547Z,100.00
2023-04-16T21:46:43.011Z,100.00
2023-04-16T21:49:10.970Z,100.00
2023-04-16T21:51:40.486Z,100.00
2023-04-16T21:54:08.312Z,100.00
2023-04-16T21:56:35.592Z,100.00
2023-04-16T21:59:03.605Z,100.00
2023-04-16T22:01:30.958Z,100.00
2023-04-16T22:03:58.722Z,100.00
2023-04-16T22:06:27.354Z,100.00
2023-04-16T22:08:55.057Z,100.00
2023-04-16T22:11:22.808Z,100.00
2023-04-16T22:13:50.447Z,100.00
2023-04-16T22:16:17.803Z,100.00
2023-04-16T22:18:46.523Z,100.00
2023-04-16T22:21:14.136Z,100.00
2023-04-16T22:23:41.848Z,100.00
2023-04-16T22:26:09.342Z,100.00
2023-04-16T22:28:36.915Z,100.00
2023-04-16T22:31:05.488Z,100.00
2023-04-16T22:33:36.930Z,100.00
2023-04-16T22:36:04.807Z,100.00
2023-04-16T22:38:32.395Z,100.00
2023-04-16T22:40:59.785Z,100.00
2023-04-16T22:43:28.210Z,100.00
2023-04-16T22:46:04.637Z,100.00
2023-04-16T22:48:34.189Z,100.00
2023-04-16T22:51:01.355Z,100.00
2023-04-16T22:53:28.929Z,100.00
2023-04-16T22:55:56.274Z,100.00
2023-04-16T22:58:23.791Z,100.00
2023-04-16T23:00:52.147Z,100.00
2023-04-16T23:03:21.799Z,100.00
2023-04-16T23:05:49.281Z,100.00
2023-04-16T23:08:16.858Z,100.00
2023-04-16T23:10:44.234Z,100.00
2023-04-16T23:13:11.910Z,100.00
2023-04-16T23:15:39.107Z,100.00
2023-04-16T23:18:06.958Z,100.00
2023-04-16T23:20:34.196Z,100.00
2023-04-16T23:23:01.769Z,100.00
2023-04-16T23:25:28.998Z,100.00
2023-04-16T23:27:56.955Z,100.00
2023-04-16T23:30:24.115Z,100.00
2023-04-16T23:32:51.832Z,100.00
2023-04-16T23:35:22.998Z,100.00
2023-04-16T23:37:50.640Z,100.00
2023-04-16T23:40:17.980Z,100.00
2023-04-16T23:42:45.618Z,100.00
2023-04-16T23:45:12.982Z,100.00
2023-04-16T23:47:40.647Z,100.00
2023-04-16T23:50:10.564Z,100.00
2023-04-16T23:52:38.115Z,100.00
2023-04-16T23:55:05.793Z,100.00
2023-04-16T23:57:33.381Z,100.00
